sensor_id;sensor_type;location;lat;lon;timestamp;P1;durP1;ratioP1;P2;durP2;ratioP2
9974;SDS011;5028;50.974;4.968;2023-06-14T00:01:33;6.40;;;4.03;;
9974;SDS011;5028;50.974;4.968;2023-06-14T00:04:02;6.13;;;3.63;;
9974;SDS011;5028;50.974;4.968;2023-06-14T00:06:31;5.67;;;3.50;;
9974;SDS011;5028;50.974;4.968;2023-06-14T00:09:00;6.33;;;3.40;;
9974;SDS011;5028;50.974;4.968;2023-06-14T00:11:29;5.70;;;3.90;;
9974;SDS011;5028;50.974;4.968;2023-06-14T00:13:59;4.23;;;3.50;;
9974;SDS011;5028;50.974;4.968;2023-06-14T00:16:29;6.90;;;3.77;;
9974;SDS011;5028;50.974;4.968;2023-06-14T00:18:59;6.00;;;3.97;;
9974;SDS011;5028;50.974;4.968;2023-06-14T00:21:29;5.20;;;4.00;;
9974;SDS011;5028;50.974;4.968;2023-06-14T00:23:58;8.20;;;4.47;;
9974;SDS011;5028;50.974;4.968;2023-06-14T00:26:27;7.17;;;3.77;;
9974;SDS011;5028;50.974;4.968;2023-06-14T00:28:56;7.50;;;3.90;;
9974;SDS011;5028;50.974;4.968;2023-06-14T00:31:27;5.90;;;4.13;;
9974;SDS011;5028;50.974;4.968;2023-06-14T00:33:57;6.30;;;4.20;;
9974;SDS011;5028;50.974;4.968;2023-06-14T00:36:26;7.83;;;3.93;;
9974;SDS011;5028;50.974;4.968;2023-06-14T00:38:54;5.67;;;3.90;;
9974;SDS011;5028;50.974;4.968;2023-06-14T00:41:23;5.30;;;3.93;;
9974;SDS011;5028;50.974;4.968;2023-06-14T00:43:52;5.53;;;4.27;;
9974;SDS011;5028;50.974;4.968;2023-06-14T00:46:24;4.50;;;3.70;;
9974;SDS011;5028;50.974;4.968;2023-06-14T00:48:53;4.17;;;3.67;;
9974;SDS011;5028;50.974;4.968;2023-06-14T00:51:23;4.90;;;3.83;;
9974;SDS011;5028;50.974;4.968;2023-06-14T00:53:53;6.80;;;3.90;;
9974;SDS011;5028;50.974;4.968;2023-06-14T00:56:22;6.60;;;4.40;;
9974;SDS011;5028;50.974;4.968;2023-06-14T00:58:51;6.97;;;4.10;;
9974;SDS011;5028;50.974;4.968;2023-06-14T01:01:20;4.40;;;4.00;;
9974;SDS011;5028;50.974;4.968;2023-06-14T01:03:51;5.37;;;4.13;;
9974;SDS011;5028;50.974;4.968;2023-06-14T01:06:23;8.70;;;4.30;;
9974;SDS011;5028;50.974;4.968;2023-06-14T01:09:01;5.00;;;3.87;;
9974;SDS011;5028;50.974;4.968;2023-06-14T01:11:37;5.70;;;4.33;;
9974;SDS011;5028;50.974;4.968;2023-06-14T01:14:10;5.43;;;3.97;;
9974;SDS011;5028;50.974;4.968;2023-06-14T01:16:40;8.03;;;4.20;;
9974;SDS011;5028;50.974;4.968;2023-06-14T01:19:11;5.30;;;4.20;;
9974;SDS011;5028;50.974;4.968;2023-06-14T01:21:41;6.83;;;4.10;;
9974;SDS011;5028;50.974;4.968;2023-06-14T01:24:10;5.67;;;4.07;;
9974;SDS011;5028;50.974;4.968;2023-06-14T01:26:38;6.83;;;4.17;;
9974;SDS011;5028;50.974;4.968;2023-06-14T01:29:12;6.83;;;4.20;;
9974;SDS011;5028;50.974;4.968;2023-06-14T01:31:44;5.23;;;4.53;;
9974;SDS011;5028;50.974;4.968;2023-06-14T01:34:13;7.13;;;5.13;;
9974;SDS011;5028;50.974;4.968;2023-06-14T01:36:43;7.57;;;4.20;;
9974;SDS011;5028;50.974;4.968;2023-06-14T01:39:14;7.20;;;4.70;;
9974;SDS011;5028;50.974;4.968;2023-06-14T01:41:42;5.00;;;4.27;;
9974;SDS011;5028;50.974;4.968;2023-06-14T01:44:12;5.87;;;4.50;;
9974;SDS011;5028;50.974;4.968;2023-06-14T01:46:42;7.43;;;4.87;;
9974;SDS011;5028;50.974;4.968;2023-06-14T01:49:11;6.60;;;4.70;;
9974;SDS011;5028;50.974;4.968;2023-06-14T01:51:40;6.17;;;4.80;;
9974;SDS011;5028;50.974;4.968;2023-06-14T01:54:08;6.33;;;4.20;;
9974;SDS011;5028;50.974;4.968;2023-06-14T01:56:38;5.83;;;4.77;;
9974;SDS011;5028;50.974;4.968;2023-06-14T01:59:06;6.43;;;4.47;;
9974;SDS011;5028;50.974;4.968;2023-06-14T02:01:34;7.10;;;4.67;;
9974;SDS011;5028;50.974;4.968;2023-06-14T02:04:03;6.50;;;4.70;;
9974;SDS011;5028;50.974;4.968;2023-06-14T02:06:31;7.13;;;4.43;;
9974;SDS011;5028;50.974;4.968;2023-06-14T02:09:00;8.97;;;5.30;;
9974;SDS011;5028;50.974;4.968;2023-06-14T02:11:30;5.43;;;4.93;;
9974;SDS011;5028;50.974;4.968;2023-06-14T02:13:59;5.67;;;5.17;;
9974;SDS011;5028;50.974;4.968;2023-06-14T02:16:28;6.70;;;4.77;;
9974;SDS011;5028;50.974;4.968;2023-06-14T02:18:56;8.20;;;5.00;;
9974;SDS011;5028;50.974;4.968;2023-06-14T02:21:25;6.87;;;5.27;;
9974;SDS011;5028;50.974;4.968;2023-06-14T02:23:53;6.50;;;5.17;;
9974;SDS011;5028;50.974;4.968;2023-06-14T02:26:21;8.37;;;4.93;;
9974;SDS011;5028;50.974;4.968;2023-06-14T02:28:49;6.10;;;5.20;;
9974;SDS011;5028;50.974;4.968;2023-06-14T02:31:19;7.50;;;5.20;;
9974;SDS011;5028;50.974;4.968;2023-06-14T02:33:47;8.10;;;5.10;;
9974;SDS011;5028;50.974;4.968;2023-06-14T02:36:16;6.97;;;5.43;;
9974;SDS011;5028;50.974;4.968;2023-06-14T02:38:44;6.40;;;5.10;;
9974;SDS011;5028;50.974;4.968;2023-06-14T02:41:13;8.70;;;4.73;;
9974;SDS011;5028;50.974;4.968;2023-06-14T02:43:41;7.40;;;5.30;;
9974;SDS011;5028;50.974;4.968;2023-06-14T02:46:10;7.60;;;5.17;;
9974;SDS011;5028;50.974;4.968;2023-06-14T02:48:40;8.37;;;5.40;;
9974;SDS011;5028;50.974;4.968;2023-06-14T02:51:08;7.40;;;5.40;;
9974;SDS011;5028;50.974;4.968;2023-06-14T02:53:36;7.53;;;5.37;;
9974;SDS011;5028;50.974;4.968;2023-06-14T02:56:06;6.83;;;4.90;;
9974;SDS011;5028;50.974;4.968;2023-06-14T02:58:35;9.00;;;5.10;;
9974;SDS011;5028;50.974;4.968;2023-06-14T03:01:04;7.87;;;5.37;;
9974;SDS011;5028;50.974;4.968;2023-06-14T03:03:34;8.60;;;5.10;;
9974;SDS011;5028;50.974;4.968;2023-06-14T03:06:03;8.17;;;4.83;;
9974;SDS011;5028;50.974;4.968;2023-06-14T03:08:32;6.60;;;5.40;;
9974;SDS011;5028;50.974;4.968;2023-06-14T03:11:05;6.20;;;4.83;;
9974;SDS011;5028;50.974;4.968;2023-06-14T03:13:34;5.43;;;4.80;;
9974;SDS011;5028;50.974;4.968;2023-06-14T03:16:03;10.00;;;5.00;;
9974;SDS011;5028;50.974;4.968;2023-06-14T03:18:33;10.00;;;5.40;;
9974;SDS011;5028;50.974;4.968;2023-06-14T03:21:04;6.90;;;4.73;;
9974;SDS011;5028;50.974;4.968;2023-06-14T03:23:35;5.73;;;4.70;;
9974;SDS011;5028;50.974;4.968;2023-06-14T03:26:03;9.03;;;5.07;;
9974;SDS011;5028;50.974;4.968;2023-06-14T03:28:31;7.70;;;5.20;;
9974;SDS011;5028;50.974;4.968;2023-06-14T03:31:00;7.47;;;4.83;;
9974;SDS011;5028;50.974;4.968;2023-06-14T03:33:28;8.53;;;5.00;;
9974;SDS011;5028;50.974;4.968;2023-06-14T03:35:56;6.03;;;4.67;;
9974;SDS011;5028;50.974;4.968;2023-06-14T03:38:26;5.83;;;4.93;;
9974;SDS011;5028;50.974;4.968;2023-06-14T03:40:54;8.13;;;5.40;;
9974;SDS011;5028;50.974;4.968;2023-06-14T03:43:22;7.03;;;5.37;;
9974;SDS011;5028;50.974;4.968;2023-06-14T03:45:51;6.33;;;4.63;;
9974;SDS011;5028;50.974;4.968;2023-06-14T03:48:19;7.00;;;4.73;;
9974;SDS011;5028;50.974;4.968;2023-06-14T03:50:47;5.50;;;4.87;;
9974;SDS011;5028;50.974;4.968;2023-06-14T03:53:16;8.93;;;5.00;;
9974;SDS011;5028;50.974;4.968;2023-06-14T03:55:48;7.87;;;5.03;;
9974;SDS011;5028;50.974;4.968;2023-06-14T03:58:22;8.07;;;4.87;;
9974;SDS011;5028;50.974;4.968;2023-06-14T04:00:50;10.50;;;5.07;;
9974;SDS011;5028;50.974;4.968;2023-06-14T04:03:18;6.40;;;5.20;;
9974;SDS011;5028;50.974;4.968;2023-06-14T04:05:55;6.73;;;4.70;;
9974;SDS011;5028;50.974;4.968;2023-06-14T04:08:26;8.70;;;5.63;;
9974;SDS011;5028;50.974;4.968;2023-06-14T04:10:56;7.23;;;5.30;;
9974;SDS011;5028;50.974;4.968;2023-06-14T04:13:24;8.73;;;4.80;;
9974;SDS011;5028;50.974;4.968;2023-06-14T04:15:52;6.83;;;4.83;;
9974;SDS011;5028;50.974;4.968;2023-06-14T04:18:23;8.20;;;5.27;;
9974;SDS011;5028;50.974;4.968;2023-06-14T04:20:53;10.23;;;5.13;;
9974;SDS011;5028;50.974;4.968;2023-06-14T04:23:22;6.90;;;5.03;;
9974;SDS011;5028;50.974;4.968;2023-06-14T04:25:51;7.93;;;5.27;;
9974;SDS011;5028;50.974;4.968;2023-06-14T04:28:20;7.30;;;5.03;;
9974;SDS011;5028;50.974;4.968;2023-06-14T04:30:53;7.47;;;4.93;;
9974;SDS011;5028;50.974;4.968;2023-06-14T04:33:21;9.60;;;5.53;;
9974;SDS011;5028;50.974;4.968;2023-06-14T04:35:51;6.90;;;5.10;;
9974;SDS011;5028;50.974;4.968;2023-06-14T04:38:20;5.73;;;5.10;;
9974;SDS011;5028;50.974;4.968;2023-06-14T04:40:51;7.30;;;5.70;;
9974;SDS011;5028;50.974;4.968;2023-06-14T04:43:21;8.77;;;5.00;;
9974;SDS011;5028;50.974;4.968;2023-06-14T04:45:54;7.03;;;5.27;;
9974;SDS011;5028;50.974;4.968;2023-06-14T04:48:23;10.70;;;5.40;;
9974;SDS011;5028;50.974;4.968;2023-06-14T04:50:51;6.47;;;5.40;;
9974;SDS011;5028;50.974;4.968;2023-06-14T04:53:19;6.93;;;4.93;;
9974;SDS011;5028;50.974;4.968;2023-06-14T04:55:49;7.87;;;5.20;;
9974;SDS011;5028;50.974;4.968;2023-06-14T04:58:17;8.67;;;5.90;;
9974;SDS011;5028;50.974;4.968;2023-06-14T05:00:47;6.67;;;5.67;;
9974;SDS011;5028;50.974;4.968;2023-06-14T05:03:15;8.27;;;5.27;;
9974;SDS011;5028;50.974;4.968;2023-06-14T05:05:45;12.57;;;5.60;;
9974;SDS011;5028;50.974;4.968;2023-06-14T05:08:13;8.57;;;5.37;;
9974;SDS011;5028;50.974;4.968;2023-06-14T05:10:41;7.90;;;5.33;;
9974;SDS011;5028;50.974;4.968;2023-06-14T05:13:10;7.67;;;5.40;;
9974;SDS011;5028;50.974;4.968;2023-06-14T05:15:38;12.13;;;5.40;;
9974;SDS011;5028;50.974;4.968;2023-06-14T05:18:07;9.67;;;6.00;;
9974;SDS011;5028;50.974;4.968;2023-06-14T05:20:36;6.83;;;5.40;;
9974;SDS011;5028;50.974;4.968;2023-06-14T05:23:04;8.37;;;5.50;;
9974;SDS011;5028;50.974;4.968;2023-06-14T05:25:32;9.27;;;5.50;;
9974;SDS011;5028;50.974;4.968;2023-06-14T05:28:00;9.33;;;5.33;;
9974;SDS011;5028;50.974;4.968;2023-06-14T05:30:29;7.47;;;5.37;;
9974;SDS011;5028;50.974;4.968;2023-06-14T05:32:59;13.73;;;5.53;;
9974;SDS011;5028;50.974;4.968;2023-06-14T05:35:29;9.27;;;5.47;;
9974;SDS011;5028;50.974;4.968;2023-06-14T05:37:57;11.30;;;5.67;;
9974;SDS011;5028;50.974;4.968;2023-06-14T05:40:25;8.10;;;5.40;;
9974;SDS011;5028;50.974;4.968;2023-06-14T05:42:54;6.17;;;5.57;;
9974;SDS011;5028;50.974;4.968;2023-06-14T05:45:22;11.57;;;5.60;;
9974;SDS011;5028;50.974;4.968;2023-06-14T05:47:50;7.07;;;5.47;;
9974;SDS011;5028;50.974;4.968;2023-06-14T05:50:21;8.30;;;5.50;;
9974;SDS011;5028;50.974;4.968;2023-06-14T05:52:50;7.97;;;5.37;;
9974;SDS011;5028;50.974;4.968;2023-06-14T05:55:18;10.10;;;5.53;;
9974;SDS011;5028;50.974;4.968;2023-06-14T05:57:47;9.13;;;5.43;;
9974;SDS011;5028;50.974;4.968;2023-06-14T06:00:16;8.03;;;5.30;;
9974;SDS011;5028;50.974;4.968;2023-06-14T06:02:46;10.17;;;6.07;;
9974;SDS011;5028;50.974;4.968;2023-06-14T06:05:15;9.97;;;5.53;;
9974;SDS011;5028;50.974;4.968;2023-06-14T06:07:44;9.03;;;5.60;;
9974;SDS011;5028;50.974;4.968;2023-06-14T06:10:14;9.83;;;5.43;;
9974;SDS011;5028;50.974;4.968;2023-06-14T06:12:42;10.40;;;5.33;;
9974;SDS011;5028;50.974;4.968;2023-06-14T06:15:11;5.57;;;5.00;;
9974;SDS011;5028;50.974;4.968;2023-06-14T06:17:39;7.17;;;5.13;;
9974;SDS011;5028;50.974;4.968;2023-06-14T06:20:21;11.10;;;5.07;;
9974;SDS011;5028;50.974;4.968;2023-06-14T06:22:55;8.57;;;5.10;;
9974;SDS011;5028;50.974;4.968;2023-06-14T06:25:26;7.17;;;5.23;;
9974;SDS011;5028;50.974;4.968;2023-06-14T06:27:54;7.10;;;4.87;;
9974;SDS011;5028;50.974;4.968;2023-06-14T06:30:23;10.93;;;5.13;;
9974;SDS011;5028;50.974;4.968;2023-06-14T06:32:52;7.13;;;4.90;;
9974;SDS011;5028;50.974;4.968;2023-06-14T06:35:22;5.97;;;4.90;;
9974;SDS011;5028;50.974;4.968;2023-06-14T06:37:50;7.47;;;5.07;;
9974;SDS011;5028;50.974;4.968;2023-06-14T06:40:19;11.80;;;5.53;;
9974;SDS011;5028;50.974;4.968;2023-06-14T06:42:48;7.33;;;5.07;;
9974;SDS011;5028;50.974;4.968;2023-06-14T06:45:17;9.23;;;4.70;;
9974;SDS011;5028;50.974;4.968;2023-06-14T06:47:47;13.23;;;5.60;;
9974;SDS011;5028;50.974;4.968;2023-06-14T06:50:15;7.40;;;4.63;;
9974;SDS011;5028;50.974;4.968;2023-06-14T06:52:45;5.60;;;4.53;;
9974;SDS011;5028;50.974;4.968;2023-06-14T06:55:13;9.67;;;5.23;;
9974;SDS011;5028;50.974;4.968;2023-06-14T06:57:42;9.13;;;5.07;;
9974;SDS011;5028;50.974;4.968;2023-06-14T07:00:12;8.47;;;4.90;;
9974;SDS011;5028;50.974;4.968;2023-06-14T07:02:42;11.97;;;5.83;;
9974;SDS011;5028;50.974;4.968;2023-06-14T07:05:10;13.33;;;5.30;;
9974;SDS011;5028;50.974;4.968;2023-06-14T07:07:38;4.93;;;4.43;;
9974;SDS011;5028;50.974;4.968;2023-06-14T07:10:07;10.00;;;5.00;;
9974;SDS011;5028;50.974;4.968;2023-06-14T07:12:35;8.83;;;4.93;;
9974;SDS011;5028;50.974;4.968;2023-06-14T07:15:06;9.33;;;5.17;;
9974;SDS011;5028;50.974;4.968;2023-06-14T07:17:36;6.43;;;4.70;;
9974;SDS011;5028;50.974;4.968;2023-06-14T07:20:05;9.30;;;4.93;;
9974;SDS011;5028;50.974;4.968;2023-06-14T07:22:39;9.70;;;4.73;;
9974;SDS011;5028;50.974;4.968;2023-06-14T07:25:08;7.73;;;4.70;;
9974;SDS011;5028;50.974;4.968;2023-06-14T07:27:40;7.97;;;5.07;;
9974;SDS011;5028;50.974;4.968;2023-06-14T07:30:08;10.33;;;4.93;;
9974;SDS011;5028;50.974;4.968;2023-06-14T07:32:39;7.03;;;4.30;;
9974;SDS011;5028;50.974;4.968;2023-06-14T07:35:07;9.63;;;4.70;;
9974;SDS011;5028;50.974;4.968;2023-06-14T07:37:36;18.43;;;4.80;;
9974;SDS011;5028;50.974;4.968;2023-06-14T07:40:05;9.80;;;4.93;;
9974;SDS011;5028;50.974;4.968;2023-06-14T07:42:34;15.03;;;4.60;;
9974;SDS011;5028;50.974;4.968;2023-06-14T07:45:03;10.30;;;4.53;;
9974;SDS011;5028;50.974;4.968;2023-06-14T07:47:32;9.20;;;4.77;;
9974;SDS011;5028;50.974;4.968;2023-06-14T07:50:03;15.20;;;4.80;;
9974;SDS011;5028;50.974;4.968;2023-06-14T07:52:32;5.27;;;4.70;;
9974;SDS011;5028;50.974;4.968;2023-06-14T07:55:01;7.77;;;4.50;;
9974;SDS011;5028;50.974;4.968;2023-06-14T07:57:29;5.97;;;4.47;;
9974;SDS011;5028;50.974;4.968;2023-06-14T07:59:57;5.50;;;4.30;;
9974;SDS011;5028;50.974;4.968;2023-06-14T08:02:26;5.33;;;4.40;;
9974;SDS011;5028;50.974;4.968;2023-06-14T08:04:54;7.50;;;4.17;;
9974;SDS011;5028;50.974;4.968;2023-06-14T08:07:24;8.27;;;4.70;;
9974;SDS011;5028;50.974;4.968;2023-06-14T08:09:52;6.10;;;4.47;;
9974;SDS011;5028;50.974;4.968;2023-06-14T08:12:21;7.60;;;4.40;;
9974;SDS011;5028;50.974;4.968;2023-06-14T08:14:50;5.30;;;4.70;;
9974;SDS011;5028;50.974;4.968;2023-06-14T08:17:39;6.50;;;4.13;;
9974;SDS011;5028;50.974;4.968;2023-06-14T08:20:08;10.30;;;4.67;;
9974;SDS011;5028;50.974;4.968;2023-06-14T08:22:39;6.43;;;4.67;;
9974;SDS011;5028;50.974;4.968;2023-06-14T08:25:09;6.60;;;4.40;;
9974;SDS011;5028;50.974;4.968;2023-06-14T08:27:38;10.57;;;4.30;;
9974;SDS011;5028;50.974;4.968;2023-06-14T08:30:11;6.60;;;4.50;;
9974;SDS011;5028;50.974;4.968;2023-06-14T08:32:40;9.70;;;4.30;;
9974;SDS011;5028;50.974;4.968;2023-06-14T08:35:08;7.40;;;4.47;;
9974;SDS011;5028;50.974;4.968;2023-06-14T08:37:40;4.63;;;4.03;;
9974;SDS011;5028;50.974;4.968;2023-06-14T08:40:13;6.37;;;4.40;;
9974;SDS011;5028;50.974;4.968;2023-06-14T08:42:47;6.93;;;3.87;;
9974;SDS011;5028;50.974;4.968;2023-06-14T08:45:18;8.70;;;4.30;;
9974;SDS011;5028;50.974;4.968;2023-06-14T08:47:51;7.03;;;4.43;;
9974;SDS011;5028;50.974;4.968;2023-06-14T08:50:25;8.40;;;3.97;;
9974;SDS011;5028;50.974;4.968;2023-06-14T08:53:00;10.13;;;4.20;;
9974;SDS011;5028;50.974;4.968;2023-06-14T08:55:30;7.23;;;3.97;;
9974;SDS011;5028;50.974;4.968;2023-06-14T08:58:03;20.80;;;4.97;;
9974;SDS011;5028;50.974;4.968;2023-06-14T09:00:32;6.90;;;3.60;;
9974;SDS011;5028;50.974;4.968;2023-06-14T09:03:01;8.57;;;3.73;;
9974;SDS011;5028;50.974;4.968;2023-06-14T09:05:30;7.97;;;3.70;;
9974;SDS011;5028;50.974;4.968;2023-06-14T09:07:59;5.97;;;3.90;;
9974;SDS011;5028;50.974;4.968;2023-06-14T09:10:32;6.47;;;3.70;;
9974;SDS011;5028;50.974;4.968;2023-06-14T09:13:01;4.80;;;3.37;;
9974;SDS011;5028;50.974;4.968;2023-06-14T09:15:30;4.25;;;3.47;;
9974;SDS011;5028;50.974;4.968;2023-06-14T09:18:00;7.47;;;3.20;;
9974;SDS011;5028;50.974;4.968;2023-06-14T09:20:29;7.40;;;3.70;;
9974;SDS011;5028;50.974;4.968;2023-06-14T09:23:00;4.87;;;3.40;;
9974;SDS011;5028;50.974;4.968;2023-06-14T09:25:28;8.05;;;3.67;;
9974;SDS011;5028;50.974;4.968;2023-06-14T09:28:08;11.57;;;3.40;;
9974;SDS011;5028;50.974;4.968;2023-06-14T09:30:37;8.07;;;3.50;;
9974;SDS011;5028;50.974;4.968;2023-06-14T09:33:05;6.88;;;3.03;;
9974;SDS011;5028;50.974;4.968;2023-06-14T09:35:34;6.47;;;3.30;;
9974;SDS011;5028;50.974;4.968;2023-06-14T09:38:04;5.28;;;3.25;;
9974;SDS011;5028;50.974;4.968;2023-06-14T09:40:35;5.82;;;3.13;;
9974;SDS011;5028;50.974;4.968;2023-06-14T09:43:04;8.90;;;3.33;;
9974;SDS011;5028;50.974;4.968;2023-06-14T09:45:35;3.75;;;3.00;;
9974;SDS011;5028;50.974;4.968;2023-06-14T09:48:27;3.28;;;2.85;;
9974;SDS011;5028;50.974;4.968;2023-06-14T09:50:56;7.40;;;2.97;;
9974;SDS011;5028;50.974;4.968;2023-06-14T09:53:29;3.75;;;2.50;;
9974;SDS011;5028;50.974;4.968;2023-06-14T09:55:59;4.60;;;2.60;;
9974;SDS011;5028;50.974;4.968;2023-06-14T09:58:27;7.82;;;2.97;;
9974;SDS011;5028;50.974;4.968;2023-06-14T10:00:56;6.93;;;2.90;;
9974;SDS011;5028;50.974;4.968;2023-06-14T10:03:28;4.43;;;2.75;;
9974;SDS011;5028;50.974;4.968;2023-06-14T10:06:15;7.32;;;2.63;;
9974;SDS011;5028;50.974;4.968;2023-06-14T10:08:46;9.40;;;2.85;;
9974;SDS011;5028;50.974;4.968;2023-06-14T10:11:16;7.40;;;2.67;;
9974;SDS011;5028;50.974;4.968;2023-06-14T10:13:45;4.00;;;2.45;;
9974;SDS011;5028;50.974;4.968;2023-06-14T10:16:15;5.10;;;2.72;;
9974;SDS011;5028;50.974;4.968;2023-06-14T10:18:48;6.68;;;2.70;;
9974;SDS011;5028;50.974;4.968;2023-06-14T10:21:21;8.38;;;2.78;;
9974;SDS011;5028;50.974;4.968;2023-06-14T10:23:56;5.32;;;2.47;;
9974;SDS011;5028;50.974;4.968;2023-06-14T10:26:32;3.67;;;2.35;;
9974;SDS011;5028;50.974;4.968;2023-06-14T10:29:06;4.75;;;2.30;;
9974;SDS011;5028;50.974;4.968;2023-06-14T10:31:42;4.57;;;2.40;;
9974;SDS011;5028;50.974;4.968;2023-06-14T10:34:11;5.55;;;2.67;;
9974;SDS011;5028;50.974;4.968;2023-06-14T10:36:41;3.85;;;2.40;;
9974;SDS011;5028;50.974;4.968;2023-06-14T10:39:13;6.35;;;2.55;;
9974;SDS011;5028;50.974;4.968;2023-06-14T10:41:50;5.95;;;2.70;;
9974;SDS011;5028;50.974;4.968;2023-06-14T10:44:39;7.43;;;2.72;;
9974;SDS011;5028;50.974;4.968;2023-06-14T10:49:55;12.13;;;2.72;;
9974;SDS011;5028;50.974;4.968;2023-06-14T10:52:31;5.78;;;2.70;;
9974;SDS011;5028;50.974;4.968;2023-06-14T10:55:04;3.72;;;2.40;;
9974;SDS011;5028;50.974;4.968;2023-06-14T10:57:36;4.55;;;2.10;;
9974;SDS011;5028;50.974;4.968;2023-06-14T11:00:18;9.07;;;2.50;;
9974;SDS011;5028;50.974;4.968;2023-06-14T11:02:59;5.10;;;2.30;;
9974;SDS011;5028;50.974;4.968;2023-06-14T11:06:05;7.50;;;2.15;;
9974;SDS011;5028;50.974;4.968;2023-06-14T11:08:53;16.95;;;3.15;;
9974;SDS011;5028;50.974;4.968;2023-06-14T11:11:42;4.13;;;2.38;;
9974;SDS011;5028;50.974;4.968;2023-06-14T11:14:13;5.70;;;2.20;;
9974;SDS011;5028;50.974;4.968;2023-06-14T11:16:41;9.48;;;2.40;;
9974;SDS011;5028;50.974;4.968;2023-06-14T11:19:09;7.68;;;2.40;;
9974;SDS011;5028;50.974;4.968;2023-06-14T11:21:39;4.50;;;2.30;;
9974;SDS011;5028;50.974;4.968;2023-06-14T11:24:09;4.30;;;2.15;;
9974;SDS011;5028;50.974;4.968;2023-06-14T11:26:39;3.65;;;1.98;;
9974;SDS011;5028;50.974;4.968;2023-06-14T11:29:09;3.97;;;1.90;;
9974;SDS011;5028;50.974;4.968;2023-06-14T11:31:37;3.72;;;1.88;;
9974;SDS011;5028;50.974;4.968;2023-06-14T11:34:11;4.22;;;2.08;;
9974;SDS011;5028;50.974;4.968;2023-06-14T11:36:40;2.80;;;1.92;;
9974;SDS011;5028;50.974;4.968;2023-06-14T11:39:09;4.82;;;2.38;;
9974;SDS011;5028;50.974;4.968;2023-06-14T11:41:38;5.40;;;1.88;;
9974;SDS011;5028;50.974;4.968;2023-06-14T11:44:07;4.70;;;2.30;;
9974;SDS011;5028;50.974;4.968;2023-06-14T11:46:37;7.93;;;2.30;;
9974;SDS011;5028;50.974;4.968;2023-06-14T11:49:06;7.30;;;1.95;;
9974;SDS011;5028;50.974;4.968;2023-06-14T11:51:36;4.03;;;1.95;;
9974;SDS011;5028;50.974;4.968;2023-06-14T11:54:05;6.90;;;2.28;;
9974;SDS011;5028;50.974;4.968;2023-06-14T11:56:34;4.13;;;1.90;;
9974;SDS011;5028;50.974;4.968;2023-06-14T11:59:04;4.22;;;1.55;;
9974;SDS011;5028;50.974;4.968;2023-06-14T12:01:36;4.78;;;1.90;;
9974;SDS011;5028;50.974;4.968;2023-06-14T12:04:06;2.22;;;1.55;;
9974;SDS011;5028;50.974;4.968;2023-06-14T12:06:34;4.90;;;1.60;;
9974;SDS011;5028;50.974;4.968;2023-06-14T12:09:06;3.20;;;1.73;;
9974;SDS011;5028;50.974;4.968;2023-06-14T12:11:39;2.92;;;1.75;;
9974;SDS011;5028;50.974;4.968;2023-06-14T12:14:08;2.40;;;1.45;;
9974;SDS011;5028;50.974;4.968;2023-06-14T12:16:38;4.25;;;1.83;;
9974;SDS011;5028;50.974;4.968;2023-06-14T12:19:09;3.80;;;1.70;;
9974;SDS011;5028;50.974;4.968;2023-06-14T12:21:39;3.42;;;1.60;;
9974;SDS011;5028;50.974;4.968;2023-06-14T12:24:08;4.03;;;1.70;;
9974;SDS011;5028;50.974;4.968;2023-06-14T12:26:39;5.72;;;1.83;;
9974;SDS011;5028;50.974;4.968;2023-06-14T12:29:08;2.97;;;1.42;;
9974;SDS011;5028;50.974;4.968;2023-06-14T12:31:40;4.72;;;1.35;;
9974;SDS011;5028;50.974;4.968;2023-06-14T12:34:09;3.63;;;1.35;;
9974;SDS011;5028;50.974;4.968;2023-06-14T12:36:37;3.72;;;1.50;;
9974;SDS011;5028;50.974;4.968;2023-06-14T12:39:10;5.63;;;1.60;;
9974;SDS011;5028;50.974;4.968;2023-06-14T12:41:38;2.33;;;1.52;;
9974;SDS011;5028;50.974;4.968;2023-06-14T12:44:08;1.92;;;1.30;;
9974;SDS011;5028;50.974;4.968;2023-06-14T12:46:37;2.33;;;1.45;;
9974;SDS011;5028;50.974;4.968;2023-06-14T12:49:09;3.25;;;1.40;;
9974;SDS011;5028;50.974;4.968;2023-06-14T12:51:39;2.80;;;1.50;;
9974;SDS011;5028;50.974;4.968;2023-06-14T12:54:07;2.90;;;1.50;;
9974;SDS011;5028;50.974;4.968;2023-06-14T12:56:36;5.38;;;1.45;;
9974;SDS011;5028;50.974;4.968;2023-06-14T12:59:04;8.00;;;1.67;;
9974;SDS011;5028;50.974;4.968;2023-06-14T13:01:32;1.85;;;1.30;;
9974;SDS011;5028;50.974;4.968;2023-06-14T13:04:01;2.88;;;1.55;;
9974;SDS011;5028;50.974;4.968;2023-06-14T13:06:31;4.03;;;1.50;;
9974;SDS011;5028;50.974;4.968;2023-06-14T13:08:59;5.68;;;1.70;;
9974;SDS011;5028;50.974;4.968;2023-06-14T13:11:28;3.05;;;1.40;;
9974;SDS011;5028;50.974;4.968;2023-06-14T13:13:56;1.90;;;1.40;;
9974;SDS011;5028;50.974;4.968;2023-06-14T13:16:29;2.05;;;1.42;;
9974;SDS011;5028;50.974;4.968;2023-06-14T13:18:57;5.47;;;1.50;;
9974;SDS011;5028;50.974;4.968;2023-06-14T13:21:25;1.70;;;1.30;;
9974;SDS011;5028;50.974;4.968;2023-06-14T13:23:55;1.95;;;1.40;;
9974;SDS011;5028;50.974;4.968;2023-06-14T13:26:23;3.72;;;1.58;;
9974;SDS011;5028;50.974;4.968;2023-06-14T13:28:53;5.25;;;1.70;;
9974;SDS011;5028;50.974;4.968;2023-06-14T13:31:21;4.78;;;1.50;;
9974;SDS011;5028;50.974;4.968;2023-06-14T13:33:49;6.28;;;1.90;;
9974;SDS011;5028;50.974;4.968;2023-06-14T13:36:17;3.72;;;1.58;;
9974;SDS011;5028;50.974;4.968;2023-06-14T13:38:46;3.95;;;1.60;;
9974;SDS011;5028;50.974;4.968;2023-06-14T13:41:16;2.08;;;1.63;;
9974;SDS011;5028;50.974;4.968;2023-06-14T13:43:44;2.38;;;1.45;;
9974;SDS011;5028;50.974;4.968;2023-06-14T13:46:12;3.70;;;1.63;;
9974;SDS011;5028;50.974;4.968;2023-06-14T13:48:40;3.42;;;1.50;;
9974;SDS011;5028;50.974;4.968;2023-06-14T13:51:09;4.18;;;1.40;;
9974;SDS011;5028;50.974;4.968;2023-06-14T13:53:37;4.90;;;1.70;;
9974;SDS011;5028;50.974;4.968;2023-06-14T13:56:06;4.32;;;1.70;;
9974;SDS011;5028;50.974;4.968;2023-06-14T13:58:37;3.25;;;1.60;;
9974;SDS011;5028;50.974;4.968;2023-06-14T14:01:05;2.53;;;1.40;;
9974;SDS011;5028;50.974;4.968;2023-06-14T14:03:35;2.33;;;1.48;;
9974;SDS011;5028;50.974;4.968;2023-06-14T14:06:03;3.45;;;1.70;;
9974;SDS011;5028;50.974;4.968;2023-06-14T14:08:32;4.38;;;1.48;;
9974;SDS011;5028;50.974;4.968;2023-06-14T14:11:00;3.78;;;1.70;;
9974;SDS011;5028;50.974;4.968;2023-06-14T14:13:29;4.70;;;1.70;;
9974;SDS011;5028;50.974;4.968;2023-06-14T14:15:59;2.88;;;1.63;;
9974;SDS011;5028;50.974;4.968;2023-06-14T14:18:27;3.20;;;1.70;;
9974;SDS011;5028;50.974;4.968;2023-06-14T14:20:57;2.45;;;1.30;;
9974;SDS011;5028;50.974;4.968;2023-06-14T14:23:27;2.25;;;1.40;;
9974;SDS011;5028;50.974;4.968;2023-06-14T14:25:55;5.05;;;1.40;;
9974;SDS011;5028;50.974;4.968;2023-06-14T14:28:24;4.82;;;1.60;;
9974;SDS011;5028;50.974;4.968;2023-06-14T14:30:52;5.35;;;1.50;;
9974;SDS011;5028;50.974;4.968;2023-06-14T14:33:22;6.45;;;2.03;;
9974;SDS011;5028;50.974;4.968;2023-06-14T14:35:50;4.30;;;1.58;;
9974;SDS011;5028;50.974;4.968;2023-06-14T14:38:19;7.25;;;1.73;;
9974;SDS011;5028;50.974;4.968;2023-06-14T14:40:48;4.97;;;1.70;;
9974;SDS011;5028;50.974;4.968;2023-06-14T14:43:16;2.08;;;1.50;;
9974;SDS011;5028;50.974;4.968;2023-06-14T14:45:44;4.32;;;1.45;;
9974;SDS011;5028;50.974;4.968;2023-06-14T14:48:13;4.30;;;1.65;;
9974;SDS011;5028;50.974;4.968;2023-06-14T14:50:43;4.97;;;1.40;;
9974;SDS011;5028;50.974;4.968;2023-06-14T14:53:11;4.97;;;1.50;;
9974;SDS011;5028;50.974;4.968;2023-06-14T14:55:39;4.97;;;1.52;;
9974;SDS011;5028;50.974;4.968;2023-06-14T14:58:08;2.28;;;1.40;;
9974;SDS011;5028;50.974;4.968;2023-06-14T15:00:36;2.45;;;1.73;;
9974;SDS011;5028;50.974;4.968;2023-06-14T15:03:04;6.32;;;1.58;;
9974;SDS011;5028;50.974;4.968;2023-06-14T15:05:33;2.90;;;1.45;;
9974;SDS011;5028;50.974;4.968;2023-06-14T15:08:02;2.58;;;1.38;;
9974;SDS011;5028;50.974;4.968;2023-06-14T15:10:31;3.10;;;1.20;;
9974;SDS011;5028;50.974;4.968;2023-06-14T15:13:00;4.78;;;1.45;;
9974;SDS011;5028;50.974;4.968;2023-06-14T15:15:28;1.80;;;1.40;;
9974;SDS011;5028;50.974;4.968;2023-06-14T15:17:56;7.53;;;1.60;;
9974;SDS011;5028;50.974;4.968;2023-06-14T15:20:24;4.55;;;1.50;;
9974;SDS011;5028;50.974;4.968;2023-06-14T15:22:53;3.72;;;1.20;;
9974;SDS011;5028;50.974;4.968;2023-06-14T15:25:27;4.30;;;1.50;;
9974;SDS011;5028;50.974;4.968;2023-06-14T15:27:56;3.35;;;1.08;;
9974;SDS011;5028;50.974;4.968;2023-06-14T15:30:24;4.28;;;1.30;;
9974;SDS011;5028;50.974;4.968;2023-06-14T15:32:52;4.05;;;1.42;;
9974;SDS011;5028;50.974;4.968;2023-06-14T15:35:21;3.88;;;1.27;;